createdAt,value
2019-01-27T04:01:02.510Z,6.19
2019-01-27T04:02:02.851Z,6.16
2019-01-27T04:03:02.703Z,6.27
2019-01-27T04:04:02.871Z,6.38
2019-01-27T04:05:03.015Z,6.30
2019-01-27T04:06:03.126Z,6.24
2019-01-27T04:07:03.299Z,6.17
2019-01-27T04:08:03.414Z,6.24
2019-01-27T04:09:03.590Z,6.24
2019-01-27T04:10:03.763Z,6.33
2019-01-27T04:11:03.971Z,6.30
2019-01-27T04:12:04.147Z,6.17
2019-01-27T04:13:04.261Z,6.19
2019-01-27T04:14:04.381Z,6.26
2019-01-27T04:15:04.534Z,6.14
2019-01-27T04:16:04.693Z,6.20
2019-01-27T04:17:04.818Z,6.31
2019-01-27T04:18:05.043Z,6.12
2019-01-27T04:19:05.160Z,6.24
2019-01-27T04:20:05.424Z,6.26
2019-01-27T04:21:05.546Z,6.33
2019-01-27T04:22:05.709Z,6.35
2019-01-27T04:23:05.810Z,6.33
2019-01-27T04:24:05.994Z,6.38
2019-01-27T04:25:06.190Z,6.28
2019-01-27T04:26:06.329Z,6.19
2019-01-27T04:27:06.512Z,6.36
2019-01-27T04:28:06.634Z,6.33
2019-01-27T04:29:06.812Z,6.26
2019-01-27T04:30:06.987Z,6.28
2019-01-27T04:31:07.087Z,6.36
2019-01-27T04:32:07.347Z,6.35
2019-01-27T04:33:07.513Z,6.30
2019-01-27T04:34:07.662Z,6.33
2019-01-27T04:35:07.809Z,6.27
2019-01-27T04:36:07.963Z,6.22
2019-01-27T04:37:08.165Z,6.27
2019-01-27T04:38:08.327Z,6.17
2019-01-27T04:39:08.571Z,6.16
2019-01-27T04:40:08.631Z,6.20
2019-01-27T04:41:08.795Z,6.19
2019-01-27T04:42:09.029Z,6.11
2019-01-27T04:43:09.118Z,6.07
2019-01-27T04:44:09.315Z,6.19
2019-01-27T04:45:09.493Z,6.17
2019-01-27T04:46:09.565Z,6.24
2019-01-27T04:47:09.803Z,6.28
2019-01-27T04:48:10.024Z,6.26
2019-01-27T04:49:10.161Z,6.14
2019-01-27T04:50:10.291Z,6.11
2019-01-27T04:51:10.479Z,6.02
2019-01-27T04:52:10.687Z,6.12
2019-01-27T04:53:10.817Z,6.12
2019-01-27T04:54:10.977Z,6.20
2019-01-27T04:55:11.130Z,6.19
2019-01-27T04:56:11.257Z,6.26
2019-01-27T04:57:11.457Z,6.22
2019-01-27T04:58:11.645Z,6.28
2019-01-27T04:59:11.790Z,6.31
2019-01-27T05:00:12.151Z,6.20
2019-01-27T05:01:12.155Z,6.12
2019-01-27T05:02:12.199Z,6.22
2019-01-27T05:03:12.357Z,6.14
2019-01-27T05:04:12.552Z,6.09
2019-01-27T05:05:12.693Z,5.98
2019-01-27T05:06:12.959Z,5.97
2019-01-27T05:07:13.124Z,5.91
2019-01-27T05:08:13.227Z,5.98
2019-01-27T05:09:13.387Z,6.01
2019-01-27T05:10:13.508Z,6.05
2019-01-27T05:11:13.716Z,5.99
2019-01-27T05:12:13.867Z,6.01
2019-01-27T05:13:14.019Z,5.94
2019-01-27T05:14:14.215Z,5.93
2019-01-27T05:15:14.311Z,6.02
2019-01-27T05:16:14.516Z,6.01
2019-01-27T05:17:14.635Z,6.11
2019-01-27T05:18:14.848Z,6.08
2019-01-27T05:19:14.932Z,6.07
2019-01-27T05:20:15.089Z,6.11
2019-01-27T05:21:15.359Z,5.97
2019-01-27T05:22:15.508Z,5.98
2019-01-27T05:23:15.592Z,6.02
2019-01-27T05:24:15.764Z,5.91
2019-01-27T05:25:15.985Z,5.97
2019-01-27T05:26:16.080Z,5.99
2019-01-27T05:27:16.243Z,6.02
2019-01-27T05:28:17.184Z,6.01
2019-01-27T05:29:16.599Z,6.05
2019-01-27T05:30:16.726Z,6.08
2019-01-27T05:31:16.884Z,6.07
2019-01-27T05:32:17.014Z,5.91
2019-01-27T05:33:17.225Z,5.99
2019-01-27T05:34:17.397Z,5.91
2019-01-27T05:35:17.589Z,5.97
2019-01-27T05:36:17.639Z,5.99
2019-01-27T05:37:17.848Z,5.98
2019-01-27T05:38:17.992Z,5.97
2019-01-27T05:39:18.169Z,6.05
2019-01-27T05:40:18.269Z,6.01
2019-01-27T05:41:18.469Z,6.02
2019-01-27T05:42:18.651Z,5.99
2019-01-27T05:43:18.779Z,5.97
2019-01-27T05:44:18.991Z,5.90
2019-01-27T05:45:19.136Z,5.91
2019-01-27T05:46:19.287Z,5.99
2019-01-27T05:47:19.432Z,5.98
2019-01-27T05:48:19.609Z,5.98
2019-01-27T05:49:19.766Z,5.90
2019-01-27T05:50:19.897Z,5.93
2019-01-27T05:51:20.089Z,6.01
2019-01-27T05:52:21.150Z,6.02
2019-01-27T05:53:20.486Z,5.90
2019-01-27T05:54:20.615Z,5.87
2019-01-27T05:55:20.743Z,5.93
2019-01-27T05:56:20.983Z,5.91
2019-01-27T05:57:21.083Z,5.94
2019-01-27T05:58:21.293Z,5.93
2019-01-27T05:59:21.427Z,5.99
2019-01-27T06:00:21.521Z,5.91
2019-01-27T06:01:21.769Z,5.90
2019-01-27T06:02:21.954Z,5.97
2019-01-27T06:03:22.087Z,6.02
2019-01-27T06:04:22.264Z,6.12
2019-01-27T06:05:22.407Z,6.09
2019-01-27T06:06:22.572Z,5.98
2019-01-27T06:07:22.770Z,6.01
2019-01-27T06:08:22.922Z,6.11
2019-01-27T06:09:23.084Z,5.94
2019-01-27T06:10:23.206Z,5.97
2019-01-27T06:11:23.422Z,6.08
2019-01-27T06:12:23.519Z,5.97
2019-01-27T06:13:23.744Z,6.02
2019-01-27T06:14:23.925Z,6.11
2019-01-27T06:15:24.081Z,5.98
2019-01-27T06:16:24.214Z,5.97
2019-01-27T06:17:24.367Z,6.05
2019-01-27T06:18:24.552Z,6.05
2019-01-27T06:19:24.696Z,6.09
2019-01-27T06:20:24.795Z,6.05
2019-01-27T06:21:25.013Z,6.02
2019-01-27T06:22:25.185Z,5.98
2019-01-27T06:23:25.348Z,6.09
2019-01-27T06:24:25.549Z,5.99
2019-01-27T06:25:26.209Z,5.93
2019-01-27T06:26:25.823Z,5.97
2019-01-27T06:27:25.917Z,5.97
2019-01-27T06:28:26.073Z,5.99
2019-01-27T06:29:26.278Z,5.94
2019-01-27T06:30:26.426Z,6.01
2019-01-27T06:31:26.531Z,5.91
2019-01-27T06:32:26.707Z,5.94
2019-01-27T06:33:26.834Z,6.04
2019-01-27T06:34:27.056Z,5.94
2019-01-27T06:35:27.188Z,5.86
2019-01-27T06:36:27.354Z,6.02
2019-01-27T06:37:27.466Z,5.97
2019-01-27T06:38:27.656Z,5.84
2019-01-27T06:39:27.842Z,5.84
2019-01-27T06:40:27.930Z,6.02
2019-01-27T06:41:28.144Z,5.98
2019-01-27T06:42:28.311Z,6.01
2019-01-27T06:43:28.434Z,5.97
2019-01-27T06:44:28.581Z,6.01
2019-01-27T06:45:28.782Z,6.09
2019-01-27T06:46:28.960Z,6.01
2019-01-27T06:47:29.076Z,5.89
2019-01-27T06:48:29.301Z,5.93
2019-01-27T06:49:29.472Z,5.97
2019-01-27T06:50:29.571Z,5.97
2019-01-27T06:51:29.735Z,5.99
2019-01-27T06:52:30.670Z,5.91
2019-01-27T06:53:30.069Z,5.94
2019-01-27T06:54:30.257Z,5.94
2019-01-27T06:55:30.483Z,5.94
2019-01-27T06:56:30.578Z,6.02
2019-01-27T06:57:30.743Z,5.99
2019-01-27T06:58:30.924Z,5.98
2019-01-27T06:59:31.064Z,5.94
2019-01-27T07:00:31.186Z,5.99
2019-01-27T07:01:31.346Z,5.98
2019-01-27T07:02:31.472Z,6.05
2019-01-27T07:03:31.623Z,6.02
2019-01-27T07:04:31.910Z,6.04
2019-01-27T07:05:31.991Z,5.99
2019-01-27T07:06:32.144Z,5.99
2019-01-27T07:07:32.278Z,6.08
2019-01-27T07:08:32.495Z,5.98
2019-01-27T07:09:32.612Z,6.05
2019-01-27T07:10:32.843Z,6.02
2019-01-27T07:11:32.917Z,5.94
2019-01-27T07:12:33.076Z,6.14
2019-01-27T07:13:33.290Z,6.12
2019-01-27T07:14:33.444Z,6.16
2019-01-27T07:15:33.594Z,6.27
2019-01-27T07:16:33.692Z,6.30
2019-01-27T07:17:33.906Z,6.20
2019-01-27T07:18:34.072Z,6.24
2019-01-27T07:19:34.283Z,6.30
2019-01-27T07:20:34.395Z,6.28
2019-01-27T07:21:34.555Z,6.22
2019-01-27T07:22:34.679Z,6.12
2019-01-27T07:23:34.823Z,6.26
2019-01-27T07:24:35.030Z,6.12
2019-01-27T07:25:35.157Z,6.27
2019-01-27T07:26:35.277Z,6.22
2019-01-27T07:27:35.513Z,6.16
2019-01-27T07:28:35.595Z,6.27
2019-01-27T07:29:35.801Z,6.11
2019-01-27T07:30:35.898Z,6.07
2019-01-27T07:31:36.145Z,6.14
2019-01-27T07:32:36.261Z,6.12
2019-01-27T07:33:36.398Z,6.20
2019-01-27T07:34:36.588Z,6.27
2019-01-27T07:35:36.704Z,6.27
2019-01-27T07:36:36.945Z,6.20
2019-01-27T07:37:37.104Z,6.09
2019-01-27T07:38:37.707Z,6.20
2019-01-27T07:39:37.534Z,6.26
2019-01-27T07:40:37.661Z,6.36
2019-01-27T07:41:37.870Z,6.19
2019-01-27T07:42:37.955Z,6.22
2019-01-27T07:43:38.173Z,6.26
2019-01-27T07:44:38.289Z,6.28
2019-01-27T07:45:38.544Z,6.24
2019-01-27T07:46:38.639Z,6.26
2019-01-27T07:47:38.794Z,6.33
2019-01-27T07:48:38.927Z,6.24
2019-01-27T07:49:39.091Z,6.26
2019-01-27T07:50:39.213Z,6.31
2019-01-27T07:51:39.382Z,6.30
2019-01-27T07:52:39.535Z,6.36
2019-01-27T07:53:39.730Z,6.36
2019-01-27T07:54:39.896Z,6.48
2019-01-27T07:55:40.066Z,6.41
2019-01-27T07:56:40.208Z,6.46
2019-01-27T07:57:40.328Z,6.51
2019-01-27T07:58:40.484Z,6.49
2019-01-27T07:59:40.651Z,6.51
2019-01-27T08:00:40.873Z,6.60
2019-01-27T08:01:40.955Z,6.66
2019-01-27T08:02:41.119Z,6.63
2019-01-27T08:03:41.267Z,6.59
2019-01-27T08:04:41.453Z,6.56
2019-01-27T08:05:41.544Z,6.46
2019-01-27T08:06:41.776Z,6.46
2019-01-27T08:07:41.909Z,6.57
2019-01-27T08:08:42.059Z,6.67
2019-01-27T08:09:42.240Z,6.64
2019-01-27T08:10:42.395Z,6.67
2019-01-27T08:11:42.555Z,6.70
2019-01-27T08:12:42.730Z,6.60
2019-01-27T08:13:42.831Z,6.62
2019-01-27T08:14:43.041Z,6.69
2019-01-27T08:15:43.137Z,6.60
2019-01-27T08:16:43.403Z,6.48
2019-01-27T08:17:43.500Z,6.56
2019-01-27T08:18:43.657Z,6.46
2019-01-27T08:19:43.844Z,6.52
2019-01-27T08:20:43.946Z,6.56
2019-01-27T08:21:44.131Z,6.59
2019-01-27T08:22:44.286Z,6.64
2019-01-27T08:23:44.481Z,6.66
2019-01-27T08:24:44.602Z,6.64
2019-01-27T08:25:44.779Z,6.60
2019-01-27T08:26:45.635Z,6.78
2019-01-27T08:27:45.181Z,6.63
2019-01-27T08:28:45.444Z,6.63
2019-01-27T08:29:45.534Z,6.62
2019-01-27T08:30:45.649Z,6.57
2019-01-27T08:31:45.834Z,6.67
2019-01-27T08:32:46.017Z,6.60
2019-01-27T08:33:46.177Z,6.57
2019-01-27T08:34:46.408Z,6.57
2019-01-27T08:35:46.502Z,6.64
2019-01-27T08:36:46.622Z,6.63
2019-01-27T08:37:46.833Z,6.66
2019-01-27T08:38:46.919Z,6.78
2019-01-27T08:39:47.117Z,6.62
2019-01-27T08:40:47.267Z,6.56
2019-01-27T08:41:47.457Z,6.59
2019-01-27T08:42:47.657Z,6.57
2019-01-27T08:43:47.757Z,6.57
2019-01-27T08:44:47.903Z,6.75
2019-01-27T08:45:48.121Z,6.64
2019-01-27T08:46:48.249Z,6.70
2019-01-27T08:47:48.514Z,6.64
2019-01-27T08:48:48.553Z,6.78
2019-01-27T08:49:48.774Z,6.72
2019-01-27T08:50:49.049Z,6.67
2019-01-27T08:51:49.218Z,6.72
2019-01-27T08:52:49.306Z,6.87
2019-01-27T08:53:49.546Z,6.92
2019-01-27T08:54:49.676Z,6.95
2019-01-27T08:55:49.892Z,6.93
2019-01-27T08:56:50.027Z,7.07
2019-01-27T08:57:50.158Z,7.28
2019-01-27T08:58:50.247Z,7.36
2019-01-27T08:59:50.513Z,7.29
2019-01-27T09:00:50.599Z,7.28
2019-01-27T09:01:50.819Z,7.40
2019-01-27T09:02:50.981Z,7.43
2019-01-27T09:03:51.109Z,7.36
2019-01-27T09:04:51.303Z,7.32
2019-01-27T09:05:51.469Z,7.29
2019-01-27T09:06:51.634Z,7.40
2019-01-27T09:07:51.723Z,7.42
2019-01-27T09:08:51.886Z,7.54
2019-01-27T09:09:52.036Z,7.51
2019-01-27T09:10:52.237Z,7.47
2019-01-27T09:11:52.448Z,7.53
2019-01-27T09:12:52.542Z,7.54
2019-01-27T09:13:52.642Z,7.45
2019-01-27T09:14:52.804Z,7.40
2019-01-27T09:15:52.979Z,7.40
2019-01-27T09:16:53.205Z,7.47
2019-01-27T09:17:53.316Z,7.60
2019-01-27T09:18:53.491Z,7.50
2019-01-27T09:19:53.729Z,7.48
2019-01-27T09:20:53.829Z,7.45
2019-01-27T09:21:54.019Z,7.43
2019-01-27T09:22:54.211Z,7.54
2019-01-27T09:23:54.407Z,7.57
2019-01-27T09:24:54.513Z,7.56
2019-01-27T09:25:54.685Z,7.66
2019-01-27T09:26:54.812Z,7.63
2019-01-27T09:27:55.006Z,7.63
2019-01-27T09:28:55.157Z,7.73
2019-01-27T09:29:55.305Z,7.66
2019-01-27T09:30:55.497Z,7.66
2019-01-27T09:31:55.594Z,7.63
2019-01-27T09:32:55.715Z,7.63
2019-01-27T09:33:55.873Z,7.63
2019-01-27T09:34:56.008Z,7.70
2019-01-27T09:35:56.186Z,7.72
2019-01-27T09:36:56.405Z,7.70
2019-01-27T09:37:56.567Z,7.66
2019-01-27T09:38:57.618Z,7.57
2019-01-27T09:39:56.914Z,7.57
2019-01-27T09:40:57.072Z,7.45
2019-01-27T09:41:57.263Z,7.51
2019-01-27T09:42:57.428Z,7.53
2019-01-27T09:43:57.573Z,7.54
2019-01-27T09:44:57.765Z,7.57
2019-01-27T09:46:05.422Z,7.54
2019-01-27T09:46:58.031Z,7.54
2019-01-27T09:47:58.232Z,7.58
2019-01-27T09:48:58.370Z,7.69
2019-01-27T09:49:58.483Z,7.66
2019-01-27T09:50:58.727Z,7.76
2019-01-27T09:51:58.867Z,7.63
2019-01-27T09:52:59.005Z,7.69
2019-01-27T09:53:59.150Z,7.69
2019-01-27T09:54:59.330Z,7.67
2019-01-27T09:55:59.461Z,7.79
2019-01-27T09:56:59.616Z,7.77
2019-01-27T09:57:59.770Z,7.97
2019-01-27T09:58:59.944Z,7.97
2019-01-27T10:00:00.242Z,8.05
2019-01-27T10:01:00.307Z,8.13
2019-01-27T10:02:00.501Z,8.09
2019-01-27T10:03:00.635Z,8.13
2019-01-27T10:04:00.737Z,8.23
2019-01-27T10:05:00.915Z,8.24
2019-01-27T10:06:01.051Z,8.44
2019-01-27T10:07:01.225Z,8.23
2019-01-27T10:08:01.434Z,8.37
2019-01-27T10:09:01.514Z,8.41
2019-01-27T10:10:01.712Z,8.41
2019-01-27T10:11:01.859Z,8.48
2019-01-27T10:12:01.996Z,8.55
2019-01-27T10:13:02.199Z,8.63
2019-01-27T10:14:02.407Z,8.60
2019-01-27T10:15:02.510Z,8.73
2019-01-27T10:16:02.748Z,8.78
2019-01-27T10:17:02.919Z,8.71
2019-01-27T10:18:03.017Z,8.76
2019-01-27T10:19:03.215Z,8.58
2019-01-27T10:20:03.382Z,8.64
2019-01-27T10:21:03.541Z,8.74
2019-01-27T10:22:03.727Z,8.66
2019-01-27T10:23:03.856Z,8.74
2019-01-27T10:24:04.027Z,8.81
2019-01-27T10:25:04.127Z,8.82
2019-01-27T10:26:04.342Z,8.91
2019-01-27T10:27:04.402Z,8.88
2019-01-27T10:28:04.636Z,8.85
2019-01-27T10:29:04.853Z,8.95
2019-01-27T10:30:04.909Z,8.95
2019-01-27T10:31:05.128Z,8.89
2019-01-27T10:32:05.268Z,8.85
2019-01-27T10:33:05.449Z,8.70
2019-01-27T10:34:05.661Z,8.67
2019-01-27T10:35:05.828Z,8.79
2019-01-27T10:36:05.982Z,8.81
2019-01-27T10:37:12.041Z,8.76
2019-01-27T10:38:06.290Z,8.76
2019-01-27T10:39:06.461Z,8.71
2019-01-27T10:40:09.235Z,8.67
2019-01-27T10:41:06.732Z,8.61
2019-01-27T10:42:06.956Z,8.58
2019-01-27T10:43:07.216Z,8.69
2019-01-27T10:44:07.461Z,8.53
2019-01-27T10:45:07.420Z,8.36
2019-01-27T10:46:07.676Z,8.37
2019-01-27T10:47:07.979Z,8.20
2019-01-27T10:48:07.930Z,8.26
2019-01-27T10:49:08.083Z,8.23
2019-01-27T10:50:08.282Z,8.31
2019-01-27T10:51:08.474Z,8.30
2019-01-27T10:52:08.646Z,8.42
2019-01-27T10:53:08.920Z,8.27
2019-01-27T10:54:08.882Z,8.45
2019-01-27T10:55:09.244Z,8.48
2019-01-27T10:56:09.409Z,8.30
2019-01-27T10:57:09.668Z,8.28
2019-01-27T10:58:09.577Z,8.27
2019-01-27T10:59:09.708Z,8.16
2019-01-27T11:00:09.844Z,7.97
2019-01-27T11:01:10.029Z,8.01
2019-01-27T11:02:10.361Z,7.93
2019-01-27T11:03:10.365Z,7.91
2019-01-27T11:04:10.548Z,8.00
2019-01-27T11:05:10.763Z,7.98
2019-01-27T11:06:10.903Z,7.93
2019-01-27T11:07:11.010Z,7.87
2019-01-27T11:08:11.193Z,7.93
2019-01-27T11:09:11.302Z,7.85
2019-01-27T11:10:11.508Z,7.88
2019-01-27T11:11:11.611Z,7.80
2019-01-27T11:12:11.797Z,7.85
2019-01-27T11:13:11.946Z,7.94
2019-01-27T11:14:12.136Z,7.93
2019-01-27T11:15:12.276Z,7.85
2019-01-27T11:16:12.455Z,7.87
2019-01-27T11:17:12.566Z,7.91
2019-01-27T11:18:12.744Z,7.82
2019-01-27T11:19:12.908Z,8.01
2019-01-27T11:20:13.044Z,7.95
2019-01-27T11:21:13.226Z,7.93
2019-01-27T11:22:13.375Z,8.15
2019-01-27T11:23:13.581Z,8.09
2019-01-27T11:24:13.734Z,8.18
2019-01-27T11:25:13.883Z,8.16
2019-01-27T11:26:14.081Z,8.15
2019-01-27T11:27:14.229Z,8.24
2019-01-27T11:28:14.378Z,8.30
2019-01-27T11:29:14.528Z,8.37
2019-01-27T11:30:14.774Z,8.33
2019-01-27T11:31:14.901Z,8.36
2019-01-27T11:32:15.069Z,8.46
2019-01-27T11:33:15.349Z,8.53
2019-01-27T11:34:15.380Z,8.49
2019-01-27T11:35:15.601Z,8.61
2019-01-27T11:36:15.749Z,8.63
2019-01-27T11:37:15.919Z,8.69
2019-01-27T11:38:16.070Z,8.66
2019-01-27T11:39:16.237Z,8.70
2019-01-27T11:40:16.435Z,8.67
2019-01-27T11:41:16.603Z,8.63
2019-01-27T11:42:16.718Z,8.61
2019-01-27T11:43:16.934Z,8.64
2019-01-27T11:44:17.179Z,8.60
2019-01-27T11:45:17.306Z,8.61
2019-01-27T11:46:17.410Z,8.58
2019-01-27T11:47:17.587Z,8.61
2019-01-27T11:48:17.740Z,8.58
2019-01-27T11:49:17.926Z,8.41
2019-01-27T11:50:18.040Z,8.28
2019-01-27T11:51:18.252Z,8.10
2019-01-27T11:52:18.360Z,8.13
2019-01-27T11:53:18.526Z,8.10
2019-01-27T11:54:18.759Z,8.15
2019-01-27T11:55:18.869Z,8.18
2019-01-27T11:56:19.083Z,8.26
2019-01-27T11:57:19.154Z,8.23
2019-01-27T11:58:19.385Z,8.41
2019-01-27T11:59:19.563Z,8.52
2019-01-27T12:00:19.710Z,8.63
2019-01-27T12:01:19.912Z,8.70
2019-01-27T12:02:20.012Z,8.95
2019-01-27T12:03:20.231Z,9.13
2019-01-27T12:04:20.336Z,9.02
2019-01-27T12:05:20.536Z,9.21
2019-01-27T12:06:20.674Z,9.29
2019-01-27T12:07:20.873Z,9.25
2019-01-27T12:08:20.996Z,9.37
2019-01-27T12:09:21.091Z,9.32
2019-01-27T12:10:21.307Z,9.02
2019-01-27T12:11:21.385Z,9.14
2019-01-27T12:12:21.685Z,9.19
2019-01-27T12:13:21.768Z,9.37
2019-01-27T12:14:21.886Z,9.44
2019-01-27T12:15:22.122Z,9.36
2019-01-27T12:16:22.372Z,9.22
2019-01-27T12:17:22.439Z,9.23
2019-01-27T12:18:22.655Z,9.19
2019-01-27T12:19:22.750Z,9.14
2019-01-27T12:20:22.934Z,9.14
2019-01-27T12:21:23.076Z,9.10
2019-01-27T12:22:23.271Z,8.92
2019-01-27T12:23:23.405Z,8.82
2019-01-27T12:24:23.593Z,8.85
2019-01-27T12:25:23.728Z,8.71
2019-01-27T12:26:23.888Z,8.61
2019-01-27T12:27:24.110Z,8.63
2019-01-27T12:28:24.313Z,8.60
2019-01-27T12:29:25.573Z,8.64
2019-01-27T12:30:24.549Z,8.84
2019-01-27T12:31:24.731Z,8.94
2019-01-27T12:32:24.968Z,8.85
2019-01-27T12:33:25.097Z,8.97
2019-01-27T12:34:25.238Z,8.71
2019-01-27T12:35:25.481Z,8.63
2019-01-27T12:36:25.613Z,8.63
2019-01-27T12:37:25.778Z,8.61
2019-01-27T12:38:25.892Z,8.61
2019-01-27T12:39:26.100Z,8.78
2019-01-27T12:40:26.249Z,8.66
2019-01-27T12:41:26.359Z,8.60
2019-01-27T12:42:26.595Z,8.56
2019-01-27T12:43:26.693Z,8.60
2019-01-27T12:44:26.897Z,8.67
2019-01-27T12:45:26.972Z,8.73
2019-01-27T12:46:27.154Z,8.67
2019-01-27T12:47:27.315Z,8.63
2019-01-27T12:48:27.508Z,8.55
2019-01-27T12:49:27.672Z,8.69
2019-01-27T12:50:27.781Z,8.69
2019-01-27T12:51:27.946Z,8.79
2019-01-27T12:52:28.168Z,8.85
2019-01-27T12:53:28.321Z,8.94
2019-01-27T12:54:28.471Z,8.92
2019-01-27T12:55:28.611Z,8.99
2019-01-27T12:56:28.732Z,8.94
2019-01-27T12:57:28.913Z,8.94
2019-01-27T12:58:29.195Z,9.03
2019-01-27T12:59:29.308Z,9.00
2019-01-27T13:00:29.470Z,9.31
2019-01-27T13:01:29.657Z,9.18
2019-01-27T13:02:29.770Z,9.31
2019-01-27T13:03:29.967Z,9.39
2019-01-27T13:04:30.188Z,9.46
2019-01-27T13:05:30.277Z,9.54
2019-01-27T13:06:30.494Z,9.48
2019-01-27T13:07:30.604Z,9.47
2019-01-27T13:08:30.705Z,9.56
2019-01-27T13:09:30.936Z,9.47
2019-01-27T13:10:31.091Z,9.47
2019-01-27T13:11:31.281Z,9.55
2019-01-27T13:12:31.396Z,9.64
2019-01-27T13:13:31.554Z,9.51
2019-01-27T13:14:31.770Z,9.46
2019-01-27T13:15:31.887Z,9.22
2019-01-27T13:16:32.047Z,9.28
2019-01-27T13:17:32.155Z,9.10
2019-01-27T13:18:32.363Z,9.16
2019-01-27T13:19:32.525Z,9.21
2019-01-27T13:20:32.674Z,9.00
2019-01-27T13:21:32.860Z,8.95
2019-01-27T13:22:33.097Z,8.94
2019-01-27T13:23:33.164Z,8.97
2019-01-27T13:24:33.349Z,8.92
2019-01-27T13:25:33.527Z,8.89
2019-01-27T13:26:33.714Z,8.60
2019-01-27T13:27:33.875Z,8.69
2019-01-27T13:28:34.042Z,8.92
2019-01-27T13:29:34.164Z,8.91
2019-01-27T13:30:34.274Z,8.85
2019-01-27T13:31:34.533Z,8.79
2019-01-27T13:32:34.631Z,8.94
2019-01-27T13:33:34.806Z,8.94
2019-01-27T13:34:34.900Z,8.95
2019-01-27T13:35:38.875Z,8.94
2019-01-27T13:36:35.260Z,8.78
2019-01-27T13:37:35.518Z,8.74
2019-01-27T13:38:35.595Z,8.56
2019-01-27T13:39:35.799Z,8.48
2019-01-27T13:40:35.902Z,8.36
2019-01-27T13:41:36.086Z,8.36
2019-01-27T13:42:36.224Z,8.27
2019-01-27T13:43:36.429Z,8.23
2019-01-27T13:44:36.553Z,8.19
2019-01-27T13:45:36.818Z,8.26
2019-01-27T13:46:36.910Z,8.28
2019-01-27T13:47:37.060Z,8.19
2019-01-27T13:48:37.211Z,8.16
2019-01-27T13:49:37.366Z,8.05
2019-01-27T13:50:37.566Z,7.90
2019-01-27T13:51:37.696Z,7.95
2019-01-27T13:52:37.905Z,7.97
2019-01-27T13:53:38.091Z,8.00
2019-01-27T13:54:38.294Z,7.98
2019-01-27T13:55:38.549Z,7.97
2019-01-27T13:56:38.568Z,7.98
2019-01-27T13:57:38.780Z,7.94
2019-01-27T13:58:38.881Z,7.97
2019-01-27T13:59:39.080Z,7.88
2019-01-27T14:00:39.172Z,7.93
2019-01-27T14:01:39.315Z,7.94
2019-01-27T14:02:39.478Z,7.77
2019-01-27T14:03:39.652Z,7.88
2019-01-27T14:04:39.826Z,7.79
2019-01-27T14:05:40.062Z,7.95
2019-01-27T14:06:40.210Z,7.93
2019-01-27T14:07:40.327Z,7.93
2019-01-27T14:08:40.505Z,7.80
2019-01-27T14:09:40.589Z,7.83
2019-01-27T14:10:40.812Z,7.75
2019-01-27T14:11:40.923Z,7.73
2019-01-27T14:12:41.100Z,7.77
2019-01-27T14:13:41.229Z,7.75
2019-01-27T14:14:41.454Z,7.76
2019-01-27T14:15:41.556Z,7.67
2019-01-27T14:16:41.779Z,7.67
2019-01-27T14:17:41.873Z,7.66
2019-01-27T14:18:42.078Z,7.67
2019-01-27T14:19:42.261Z,7.76
2019-01-27T14:20:42.410Z,7.83
2019-01-27T14:21:42.595Z,7.94
2019-01-27T14:22:42.686Z,8.03
2019-01-27T14:23:42.857Z,8.10
2019-01-27T14:24:43.022Z,8.08
2019-01-27T14:25:43.238Z,8.01
2019-01-27T14:26:43.313Z,7.97
2019-01-27T14:27:43.504Z,7.91
2019-01-27T14:28:43.646Z,7.94
2019-01-27T14:29:43.817Z,7.94
2019-01-27T14:30:43.963Z,7.85
2019-01-27T14:31:44.158Z,7.80
2019-01-27T14:32:44.294Z,7.91
2019-01-27T14:33:44.425Z,7.75
2019-01-27T14:34:44.599Z,7.69
2019-01-27T14:35:44.810Z,7.61
2019-01-27T14:36:44.935Z,7.70
2019-01-27T14:37:45.049Z,7.75
2019-01-27T14:38:45.214Z,7.88
2019-01-27T14:39:45.412Z,7.93
2019-01-27T14:40:45.539Z,7.70
2019-01-27T14:41:45.713Z,7.60
2019-01-27T14:42:45.897Z,7.60
2019-01-27T14:43:46.118Z,7.57
2019-01-27T14:44:46.204Z,7.63
2019-01-27T14:45:46.335Z,7.57
2019-01-27T14:46:46.539Z,7.51
2019-01-27T14:47:46.739Z,7.58
2019-01-27T14:48:46.931Z,7.47
2019-01-27T14:49:47.010Z,7.35
2019-01-27T14:50:47.145Z,7.24
2019-01-27T14:51:47.354Z,7.29
2019-01-27T14:52:47.463Z,7.36
2019-01-27T14:53:47.680Z,7.24
2019-01-27T14:54:47.759Z,7.23
2019-01-27T14:55:47.959Z,7.24
2019-01-27T14:56:48.196Z,7.23
2019-01-27T14:57:48.239Z,7.20
2019-01-27T14:58:48.451Z,7.17
2019-01-27T14:59:48.625Z,7.15
2019-01-27T15:00:48.757Z,7.14
2019-01-27T15:01:48.935Z,7.15
2019-01-27T15:02:49.119Z,7.13
2019-01-27T15:03:49.302Z,7.10
2019-01-27T15:04:49.442Z,6.96
2019-01-27T15:05:49.585Z,6.99
2019-01-27T15:06:50.022Z,7.02
2019-01-27T15:07:50.043Z,6.96
2019-01-27T15:08:50.214Z,6.87
2019-01-27T15:09:50.314Z,6.92
2019-01-27T15:10:50.485Z,6.92
2019-01-27T15:11:50.638Z,6.99
2019-01-27T15:12:50.827Z,6.93
2019-01-27T15:13:50.941Z,6.96
2019-01-27T15:14:51.109Z,6.81
2019-01-27T15:15:51.249Z,6.81
2019-01-27T15:16:51.450Z,6.85
2019-01-27T15:17:51.626Z,6.82
2019-01-27T15:18:51.770Z,6.85
2019-01-27T15:19:51.900Z,6.85
2019-01-27T15:20:52.117Z,6.79
2019-01-27T15:21:52.237Z,6.67
2019-01-27T15:22:52.451Z,6.78
2019-01-27T15:23:52.597Z,6.78
2019-01-27T15:24:52.754Z,6.77
2019-01-27T15:25:52.879Z,6.77
2019-01-27T15:26:53.040Z,6.69
2019-01-27T15:27:53.183Z,6.74
2019-01-27T15:28:53.363Z,6.70
2019-01-27T15:29:53.520Z,6.72
2019-01-27T15:30:53.688Z,6.75
2019-01-27T15:31:53.812Z,6.75
2019-01-27T15:32:54.809Z,6.77
2019-01-27T15:33:54.168Z,6.78
2019-01-27T15:34:54.281Z,6.72
2019-01-27T15:35:54.399Z,6.67
2019-01-27T15:36:54.564Z,6.66
2019-01-27T15:37:54.750Z,6.70
2019-01-27T15:38:54.931Z,6.69
2019-01-27T15:39:55.166Z,6.81
2019-01-27T15:40:55.226Z,6.69
2019-01-27T15:41:55.366Z,6.63
2019-01-27T15:42:55.575Z,6.70
2019-01-27T15:43:55.733Z,6.69
2019-01-27T15:44:55.868Z,6.70
2019-01-27T15:45:56.014Z,6.69
2019-01-27T15:46:56.175Z,6.72
2019-01-27T15:47:56.332Z,6.77
2019-01-27T15:48:56.513Z,6.62
2019-01-27T15:49:56.686Z,6.60
2019-01-27T15:50:56.851Z,6.64
2019-01-27T15:51:56.951Z,6.64
2019-01-27T15:52:57.149Z,6.70
2019-01-27T15:53:57.298Z,6.57
2019-01-27T15:54:57.584Z,6.62
2019-01-27T15:55:57.658Z,6.57
2019-01-27T15:56:57.813Z,6.60
2019-01-27T15:57:58.007Z,6.57
2019-01-27T15:58:58.129Z,6.74
2019-01-27T15:59:58.305Z,6.60
2019-01-27T16:00:58.434Z,6.67
2019-01-27T16:01:58.622Z,6.74
2019-01-27T16:02:58.770Z,6.62
2019-01-27T16:03:58.959Z,6.70
2019-01-27T16:04:59.099Z,6.67
2019-01-27T16:05:59.280Z,6.70
2019-01-27T16:06:59.396Z,6.77
2019-01-27T16:07:59.532Z,6.75
2019-01-27T16:08:59.783Z,6.66
2019-01-27T16:09:59.910Z,6.63
2019-01-27T16:11:00.025Z,6.75
2019-01-27T16:12:00.223Z,6.63
2019-01-27T16:13:00.394Z,6.64
2019-01-27T16:14:00.654Z,6.66
2019-01-27T16:15:00.677Z,6.72
2019-01-27T16:16:00.869Z,6.66
2019-01-27T16:17:00.981Z,6.60
2019-01-27T16:18:01.128Z,6.66
2019-01-27T16:19:01.378Z,6.74
2019-01-27T16:20:01.448Z,6.66
2019-01-27T16:21:01.642Z,6.69
2019-01-27T16:22:01.972Z,6.60
2019-01-27T16:23:01.974Z,6.70
2019-01-27T16:24:02.108Z,6.67
2019-01-27T16:25:02.309Z,6.75
2019-01-27T16:26:02.466Z,6.72
2019-01-27T16:27:02.581Z,6.74
2019-01-27T16:28:02.741Z,6.70
2019-01-27T16:29:02.931Z,6.60
2019-01-27T16:30:03.120Z,6.64
2019-01-27T16:31:03.262Z,6.57
2019-01-27T16:32:03.373Z,6.57
2019-01-27T16:33:03.578Z,6.56
2019-01-27T16:34:03.758Z,6.48
2019-01-27T16:35:03.897Z,6.54
2019-01-27T16:36:03.989Z,6.70
2019-01-27T16:37:04.136Z,6.67
2019-01-27T16:38:04.341Z,6.74
2019-01-27T16:39:04.529Z,6.69
2019-01-27T16:40:04.663Z,6.78
2019-01-27T16:41:04.857Z,6.75
2019-01-27T16:42:05.028Z,6.69
2019-01-27T16:43:05.182Z,6.63
2019-01-27T16:44:05.362Z,6.77
2019-01-27T16:45:05.474Z,6.60
2019-01-27T16:46:05.585Z,6.69
2019-01-27T16:47:05.788Z,6.64
2019-01-27T16:48:05.945Z,6.67
2019-01-27T16:49:06.127Z,6.72
2019-01-27T16:50:06.258Z,6.74
2019-01-27T16:51:06.414Z,6.74
2019-01-27T16:52:06.632Z,6.74
2019-01-27T16:53:06.755Z,6.63
2019-01-27T16:54:06.939Z,6.70
2019-01-27T16:55:07.006Z,6.70
2019-01-27T16:56:07.238Z,6.74
2019-01-27T16:57:07.343Z,6.75
2019-01-27T16:58:07.580Z,6.70
2019-01-27T16:59:07.760Z,6.66
2019-01-27T17:00:07.831Z,6.64
2019-01-27T17:01:07.972Z,6.67
2019-01-27T17:02:08.228Z,6.63
2019-01-27T17:03:08.298Z,6.69
2019-01-27T17:04:08.535Z,6.69
2019-01-27T17:05:08.655Z,6.72
2019-01-27T17:06:08.842Z,6.74
2019-01-27T17:07:08.941Z,6.64
2019-01-27T17:08:09.150Z,6.63
2019-01-27T17:09:09.317Z,6.67
2019-01-27T17:10:09.447Z,6.64
2019-01-27T17:11:09.674Z,6.64
2019-01-27T17:12:09.768Z,6.70
2019-01-27T17:13:09.893Z,6.72
2019-01-27T17:14:10.090Z,6.70
2019-01-27T17:15:10.278Z,6.70
2019-01-27T17:16:10.404Z,6.67
2019-01-27T17:17:10.595Z,6.72
2019-01-27T17:18:10.742Z,6.75
2019-01-27T17:19:10.939Z,6.84
2019-01-27T17:20:11.046Z,6.87
2019-01-27T17:21:11.210Z,6.85